createdAt,value
2016-11-08T00:00:04.784Z,65.75
2016-11-08T00:01:05.109Z,65.66
2016-11-08T00:02:05.123Z,65.66
2016-11-08T00:03:04.826Z,66.61
2016-11-08T00:04:05.154Z,66.99
2016-11-08T00:05:04.851Z,66.8
2016-11-08T00:06:05.183Z,67.18
2016-11-08T00:07:04.882Z,67.08
2016-11-08T00:08:04.899Z,67.18
2016-11-08T00:09:05.226Z,67.33
2016-11-08T00:10:05.243Z,67.46
2016-11-08T00:11:04.937Z,67.56
2016-11-08T00:12:04.952Z,67.46
2016-11-08T00:13:04.968Z,68.13
2016-11-08T00:14:05.298Z,67.94
2016-11-08T00:15:05.310Z,67.08
2016-11-08T00:16:05.007Z,67.27
2016-11-08T00:17:05.350Z,67.27
2016-11-08T00:18:05.039Z,67.85
2016-11-08T00:19:05.369Z,67.46
2016-11-08T00:20:05.068Z,67.08
2016-11-08T00:21:05.101Z,67.08
2016-11-08T00:22:05.111Z,67.65
2016-11-08T00:23:05.427Z,67.27
2016-11-08T00:24:05.437Z,67.56
2016-11-08T00:25:05.136Z,67.75
2016-11-08T00:26:05.468Z,68.23
2016-11-08T00:27:05.479Z,67.46
2016-11-08T00:28:05.613Z,68.04
2016-11-08T00:29:05.197Z,67.85
2016-11-08T00:30:05.525Z,67.27
2016-11-08T00:31:05.220Z,67.56
2016-11-08T00:32:05.573Z,67.46
2016-11-08T00:33:05.567Z,66.99
2016-11-08T00:34:05.264Z,66.99
2016-11-08T00:35:05.280Z,67.37
2016-11-08T00:36:05.609Z,68.19
2016-11-08T00:37:05.309Z,67.94
2016-11-08T00:38:05.324Z,68.04
2016-11-08T00:39:05.651Z,67.33
2016-11-08T00:40:05.351Z,67.71
2016-11-08T00:41:05.365Z,67.9
2016-11-08T00:42:05.724Z,68.19
2016-11-08T00:43:05.709Z,68.38
2016-11-08T00:44:05.722Z,68.48
2016-11-08T00:45:05.423Z,68.1
2016-11-08T00:46:05.439Z,68.38
2016-11-08T00:47:05.764Z,68.29
2016-11-08T00:48:05.782Z,68.41
2016-11-08T00:49:05.478Z,68.04
2016-11-08T00:50:05.512Z,68.04
2016-11-08T00:51:05.824Z,67.46
2016-11-08T00:52:05.521Z,67.27
2016-11-08T00:53:05.570Z,67.27
2016-11-08T00:54:05.552Z,67.37
2016-11-08T00:55:05.879Z,68.19
2016-11-08T00:56:05.893Z,67.9
2016-11-08T00:57:05.912Z,68.51
2016-11-08T00:58:05.925Z,68.32
2016-11-08T00:59:05.620Z,68.41
2016-11-08T01:00:05.953Z,67.85
2016-11-08T01:01:05.650Z,67.46
2016-11-08T01:02:05.981Z,67.65
2016-11-08T01:03:05.993Z,67.08
2016-11-08T01:04:05.696Z,67.27
2016-11-08T01:05:05.705Z,67.46
2016-11-08T01:06:06.038Z,67.46
2016-11-08T01:07:05.735Z,67.56
2016-11-08T01:08:05.751Z,67.65
2016-11-08T01:09:06.079Z,67.18
2016-11-08T01:10:05.777Z,66.89
2016-11-08T01:11:06.108Z,66.89
2016-11-08T01:12:05.816Z,67.18
2016-11-08T01:13:06.139Z,66.99
2016-11-08T01:14:06.149Z,66.52
2016-11-08T01:15:05.848Z,67.08
2016-11-08T01:16:06.179Z,66.8
2016-11-08T01:17:06.196Z,66.52
2016-11-08T01:18:05.890Z,66.99
2016-11-08T01:19:06.239Z,66.99
2016-11-08T01:20:05.932Z,67.37
2016-11-08T01:21:05.934Z,67.18
2016-11-08T01:22:05.950Z,67.46
2016-11-08T01:23:05.966Z,67.08
2016-11-08T01:24:06.292Z,67.65
2016-11-08T01:25:06.309Z,67.56
2016-11-08T01:26:06.324Z,67.56
2016-11-08T01:27:06.017Z,67.27
2016-11-08T01:28:06.035Z,66.8
2016-11-08T01:29:06.366Z,67.37
2016-11-08T01:30:06.065Z,67.08
2016-11-08T01:31:06.392Z,66.71
2016-11-08T01:32:06.091Z,66.71
2016-11-08T01:33:06.108Z,66.99
2016-11-08T01:34:06.458Z,67.27
2016-11-08T01:35:06.453Z,66.89
2016-11-08T01:36:06.465Z,66.8
2016-11-08T01:37:06.164Z,67.37
2016-11-08T01:38:06.495Z,67.27
2016-11-08T01:39:06.512Z,67.27
2016-11-08T01:40:06.522Z,66.61
2016-11-08T01:41:06.223Z,66.52
2016-11-08T01:42:06.552Z,66.71
2016-11-08T01:43:06.562Z,66.89
2016-11-08T01:44:06.583Z,66.33
2016-11-08T01:45:06.278Z,65.56
2016-11-08T01:46:06.297Z,66.61
2016-11-08T01:47:06.308Z,66.52
2016-11-08T01:48:06.333Z,66.8
2016-11-08T01:49:06.655Z,66.71
2016-11-08T01:50:06.351Z,66.89
2016-11-08T01:51:06.364Z,66.99
2016-11-08T01:52:06.697Z,65.85
2016-11-08T01:53:06.394Z,65.95
2016-11-08T01:54:06.724Z,66.61
2016-11-08T01:55:06.421Z,66.71
2016-11-08T01:56:06.469Z,66.04
2016-11-08T01:57:06.454Z,65.75
2016-11-08T01:58:06.781Z,66.8
2016-11-08T01:59:06.487Z,67.08
2016-11-08T02:00:06.810Z,66.61
2016-11-08T02:01:06.507Z,66.42
2016-11-08T02:02:06.540Z,66.52
2016-11-08T02:03:06.556Z,65.85
2016-11-08T02:04:06.567Z,65.95
2016-11-08T02:05:06.884Z,65.66
2016-11-08T02:06:06.582Z,65.85
2016-11-08T02:07:06.596Z,66.14
2016-11-08T02:08:06.610Z,66.61
2016-11-08T02:09:06.937Z,66.42
2016-11-08T02:10:06.959Z,66.14
2016-11-08T02:11:06.649Z,66.23
2016-11-08T02:12:06.667Z,66.14
2016-11-08T02:13:06.682Z,66.61
2016-11-08T02:14:06.694Z,66.8
2016-11-08T02:15:07.025Z,67.08
2016-11-08T02:16:07.051Z,67.18
2016-11-08T02:17:06.744Z,66.99
2016-11-08T02:18:07.068Z,66.52
2016-11-08T02:19:07.082Z,65.95
2016-11-08T02:20:07.099Z,66.61
2016-11-08T02:21:07.110Z,65.95
2016-11-08T02:22:06.808Z,66.52
2016-11-08T02:23:07.139Z,65.85
2016-11-08T02:24:06.838Z,65.56
2016-11-08T02:25:07.167Z,65.75
2016-11-08T02:26:06.865Z,65.28
2016-11-08T02:27:06.880Z,65.75
2016-11-08T02:28:07.218Z,65.66
2016-11-08T02:29:07.225Z,65.28
2016-11-08T02:30:06.924Z,65.56
2016-11-08T02:31:06.939Z,65.28
2016-11-08T02:32:07.283Z,65.47
2016-11-08T02:33:07.284Z,65.47
2016-11-08T02:34:06.980Z,65.47
2016-11-08T02:35:07.313Z,65.66
2016-11-08T02:36:07.011Z,66.23
2016-11-08T02:37:07.026Z,65.56
2016-11-08T02:38:07.047Z,65.85
2016-11-08T02:39:07.055Z,66.04
2016-11-08T02:40:07.069Z,65.66
2016-11-08T02:41:07.082Z,65.75
2016-11-08T02:42:07.097Z,66.33
2016-11-08T02:43:07.425Z,65.95
2016-11-08T02:44:07.127Z,66.14
2016-11-08T02:45:07.140Z,65.95
2016-11-08T02:46:07.473Z,66.04
2016-11-08T02:47:07.170Z,66.23
2016-11-08T02:48:07.496Z,65.66
2016-11-08T02:49:07.196Z,65.85
2016-11-08T02:50:07.210Z,65.37
2016-11-08T02:51:07.541Z,65.85
2016-11-08T02:52:07.243Z,65.85
2016-11-08T02:53:07.254Z,65.66
2016-11-08T02:54:07.584Z,65.28
2016-11-08T02:55:07.601Z,65.66
2016-11-08T02:56:07.297Z,65.66
2016-11-08T02:57:07.312Z,65.56
2016-11-08T02:58:07.643Z,65.47
2016-11-08T02:59:07.340Z,65.56
2016-11-08T03:00:07.355Z,65.66
2016-11-08T03:01:07.378Z,65.85
2016-11-08T03:02:07.390Z,66.14
2016-11-08T03:03:07.716Z,65.85
2016-11-08T03:04:07.416Z,65.28
2016-11-08T03:05:07.743Z,65.66
2016-11-08T03:06:07.442Z,65.66
2016-11-08T03:07:07.455Z,65.28
2016-11-08T03:08:07.472Z,65.37
2016-11-08T03:09:07.800Z,65.56
2016-11-08T03:10:07.501Z,65.47
2016-11-08T03:11:07.513Z,65.85
2016-11-08T03:12:07.528Z,65.56
2016-11-08T03:13:07.545Z,65.47
2016-11-08T03:14:07.556Z,65.85
2016-11-08T03:15:07.570Z,65.28
2016-11-08T03:16:07.904Z,65.47
2016-11-08T03:17:07.601Z,65.47
2016-11-08T03:18:07.932Z,65.95
2016-11-08T03:19:07.944Z,66.23
2016-11-08T03:20:07.961Z,66.42
2016-11-08T03:21:07.974Z,66.8
2016-11-08T03:22:07.985Z,66.33
2016-11-08T03:23:07.687Z,66.61
2016-11-08T03:24:07.700Z,66.33
2016-11-08T03:25:08.034Z,65.75
2016-11-08T03:26:07.732Z,65.85
2016-11-08T03:27:07.741Z,65.37
2016-11-08T03:28:07.759Z,66.23
2016-11-08T03:29:07.772Z,65.47
2016-11-08T03:30:08.107Z,65.85
2016-11-08T03:31:08.117Z,65.56
2016-11-08T03:32:07.817Z,65.75
2016-11-08T03:33:08.165Z,65.85
2016-11-08T03:34:08.160Z,65.47
2016-11-08T03:35:07.860Z,65.66
2016-11-08T03:36:08.189Z,65.85
2016-11-08T03:37:07.888Z,66.14
2016-11-08T03:38:08.216Z,66.52
2016-11-08T03:39:07.915Z,66.33
2016-11-08T03:40:07.927Z,66.8
2016-11-08T03:41:07.944Z,66.61
2016-11-08T03:42:07.965Z,66.71
2016-11-08T03:43:07.974Z,65.95
2016-11-08T03:44:07.984Z,66.71
2016-11-08T03:45:08.316Z,66.61
2016-11-08T03:46:08.014Z,66.52
2016-11-08T03:47:08.029Z,66.61
2016-11-08T03:48:08.046Z,67.27
2016-11-08T03:49:08.059Z,67.37
2016-11-08T03:50:08.074Z,66.99
2016-11-08T03:51:08.401Z,66.42
2016-11-08T03:52:08.102Z,66.42
2016-11-08T03:53:08.115Z,66.61
2016-11-08T03:54:08.130Z,66.61
2016-11-08T03:55:08.143Z,66.61
2016-11-08T03:56:08.156Z,66.52
2016-11-08T03:57:08.174Z,66.23
2016-11-08T03:58:08.502Z,66.61
2016-11-08T03:59:08.519Z,67.08
2016-11-08T04:00:08.213Z,66.61
2016-11-08T04:01:08.576Z,66.52
2016-11-08T04:02:08.577Z,66.42
2016-11-08T04:03:08.255Z,66.42
2016-11-08T04:04:08.270Z,66.71
2016-11-08T04:05:08.284Z,66.52
2016-11-08T04:06:08.300Z,67.08
2016-11-08T04:07:08.313Z,66.61
2016-11-08T04:08:08.329Z,67.08
2016-11-08T04:09:08.344Z,67.08
2016-11-08T04:10:08.354Z,67.37
2016-11-08T04:11:08.684Z,66.99
2016-11-08T04:12:08.385Z,66.99
2016-11-08T04:13:08.406Z,67.08
2016-11-08T04:14:08.413Z,66.71
2016-11-08T04:15:08.426Z,66.39
2016-11-08T04:16:08.440Z,66.96
2016-11-08T04:17:08.772Z,67.43
2016-11-08T04:18:08.468Z,67.62
2016-11-08T04:19:08.481Z,67.52
2016-11-08T04:20:08.491Z,67.33
2016-11-08T04:21:08.826Z,67.46
2016-11-08T04:22:08.836Z,67.27
2016-11-08T04:23:08.855Z,67.37
2016-11-08T04:24:08.866Z,66.67
2016-11-08T04:25:08.563Z,67.05
2016-11-08T04:26:08.896Z,67.43
2016-11-08T04:27:08.907Z,66.86
2016-11-08T04:28:08.616Z,67.52
2016-11-08T04:29:08.635Z,66.96
2016-11-08T04:30:08.951Z,67.24
2016-11-08T04:31:08.961Z,67.33
2016-11-08T04:32:08.661Z,67.24
2016-11-08T04:33:08.675Z,67.43
2016-11-08T04:34:09.007Z,67.33
2016-11-08T04:35:09.020Z,67.24
2016-11-08T04:36:08.716Z,67.62
2016-11-08T04:37:09.047Z,67.52
2016-11-08T04:38:09.064Z,67.33
2016-11-08T04:39:08.765Z,67.43
2016-11-08T04:40:09.090Z,67.62
2016-11-08T04:41:08.787Z,67.71
2016-11-08T04:42:09.118Z,67.81
2016-11-08T04:43:08.817Z,68.38
2016-11-08T04:44:08.831Z,68.48
2016-11-08T04:45:08.843Z,68.38
2016-11-08T04:46:08.868Z,68.48
2016-11-08T04:47:09.187Z,68
2016-11-08T04:48:09.200Z,67.9
2016-11-08T04:49:08.901Z,68.29
2016-11-08T04:50:08.913Z,68.29
2016-11-08T04:51:08.926Z,69.23
2016-11-08T04:52:09.260Z,69.04
2016-11-08T04:53:08.951Z,68.38
2016-11-08T04:54:08.964Z,68.38
2016-11-08T04:55:08.979Z,68.66
2016-11-08T04:56:08.996Z,69.04
2016-11-08T04:57:09.021Z,69.13
2016-11-08T04:58:09.335Z,69.23
2016-11-08T04:59:09.350Z,69.33
2016-11-08T05:00:09.050Z,68.85
2016-11-08T05:01:09.067Z,68.95
2016-11-08T05:02:09.074Z,69.52
2016-11-08T05:03:09.440Z,69.13
2016-11-08T05:04:09.418Z,68.48
2016-11-08T05:05:09.431Z,68.38
2016-11-08T05:06:09.128Z,68.19
2016-11-08T05:07:09.463Z,68.38
2016-11-08T05:08:09.157Z,68.48
2016-11-08T05:09:09.171Z,68
2016-11-08T05:10:09.223Z,68.19
2016-11-08T05:11:09.526Z,67.81
2016-11-08T05:12:09.528Z,67.9
2016-11-08T05:13:09.539Z,68.38
2016-11-08T05:14:09.243Z,68.19
2016-11-08T05:15:09.570Z,68.19
2016-11-08T05:16:09.266Z,68.1
2016-11-08T05:17:09.278Z,67.43
2016-11-08T05:18:09.609Z,68
2016-11-08T05:19:09.310Z,68.57
2016-11-08T05:20:09.322Z,68
2016-11-08T05:21:09.334Z,68.1
2016-11-08T05:22:09.350Z,68
2016-11-08T05:23:09.363Z,67.33
2016-11-08T05:24:09.377Z,67.9
2016-11-08T05:25:09.709Z,68.48
2016-11-08T05:26:09.407Z,68.48
2016-11-08T05:27:09.735Z,68.38
2016-11-08T05:28:09.435Z,68.48
2016-11-08T05:29:09.764Z,68.29
2016-11-08T05:30:09.776Z,67.71
2016-11-08T05:31:09.473Z,68
2016-11-08T05:32:09.800Z,68.1
2016-11-08T05:33:09.502Z,68.19
2016-11-08T05:34:09.521Z,67.62
2016-11-08T05:35:09.528Z,67.9
2016-11-08T05:36:09.544Z,67.43
2016-11-08T05:37:09.872Z,67.62
2016-11-08T05:38:09.887Z,67.9
2016-11-08T05:39:09.587Z,68
2016-11-08T05:40:09.938Z,68.66
2016-11-08T05:41:09.632Z,68.19
2016-11-08T05:42:09.945Z,68
2016-11-08T05:43:09.956Z,68
2016-11-08T05:44:09.653Z,68.38
2016-11-08T05:45:09.983Z,67.9
2016-11-08T05:46:09.681Z,68
2016-11-08T05:47:10.015Z,67.62
2016-11-08T05:48:09.711Z,67.62
2016-11-08T05:49:10.040Z,67.52
2016-11-08T05:50:10.055Z,67.62
2016-11-08T05:51:09.753Z,68.1
2016-11-08T05:52:09.766Z,68.1
2016-11-08T05:53:09.778Z,67.81
2016-11-08T05:54:09.792Z,68.29
2016-11-08T05:55:10.121Z,68.29
2016-11-08T05:56:10.136Z,68
2016-11-08T05:57:09.833Z,67.24
2016-11-08T05:58:10.166Z,66.86
2016-11-08T05:59:09.862Z,66.86
2016-11-08T06:00:09.873Z,67.05
2016-11-08T06:01:09.886Z,67.43
2016-11-08T06:02:10.226Z,68.1
2016-11-08T06:03:09.917Z,68.29
2016-11-08T06:04:09.930Z,68.38
2016-11-08T06:05:09.947Z,67.9
2016-11-08T06:06:10.272Z,68
2016-11-08T06:07:09.970Z,67.62
2016-11-08T06:08:10.302Z,67.52
2016-11-08T06:09:09.999Z,68.1
2016-11-08T06:10:10.328Z,68.48
2016-11-08T06:11:10.026Z,68.38
2016-11-08T06:12:10.406Z,68.38
2016-11-08T06:13:10.366Z,68.1
2016-11-08T06:14:10.380Z,68.29
2016-11-08T06:15:10.077Z,68.19
2016-11-08T06:16:10.418Z,68.38
2016-11-08T06:17:10.425Z,68.95
2016-11-08T06:18:10.434Z,69.23
2016-11-08T06:19:10.135Z,69.42
2016-11-08T06:20:10.148Z,69.04
2016-11-08T06:21:10.477Z,68.48
2016-11-08T06:22:10.175Z,69.04
2016-11-08T06:23:10.506Z,69.33
2016-11-08T06:24:10.519Z,69.42
2016-11-08T06:25:10.215Z,69.61
2016-11-08T06:26:10.543Z,69.33
2016-11-08T06:27:10.246Z,69.13
2016-11-08T06:28:10.261Z,69.23
2016-11-08T06:29:10.588Z,69.48
2016-11-08T06:30:10.285Z,69.67
2016-11-08T06:31:10.632Z,70.24
2016-11-08T06:32:10.328Z,69.52
2016-11-08T06:33:10.324Z,69.23
2016-11-08T06:34:10.655Z,69.04
2016-11-08T06:35:10.919Z,69.13
2016-11-08T06:36:10.682Z,69.52
2016-11-08T06:37:10.697Z,69.9
2016-11-08T06:38:10.710Z,69.71
2016-11-08T06:39:10.723Z,69.13
2016-11-08T06:40:10.424Z,69.13
2016-11-08T06:41:10.458Z,68.57
2016-11-08T06:42:10.763Z,69.04
2016-11-08T06:43:25.350Z,69.42
2016-11-08T06:44:10.474Z,69.71
2016-11-08T06:45:10.831Z,69.23
2016-11-08T06:46:10.516Z,68.48
2016-11-08T06:47:10.517Z,68.85
2016-11-08T06:48:10.530Z,69.71
2016-11-08T06:49:10.863Z,69.52
2016-11-08T06:50:10.559Z,69.13
2016-11-08T06:51:10.585Z,69.13
2016-11-08T06:52:10.898Z,69.33
2016-11-08T06:53:10.916Z,69.52
2016-11-08T06:54:10.929Z,69.61
2016-11-08T06:55:10.629Z,70.28
2016-11-08T06:56:10.978Z,70.28
2016-11-08T06:57:10.653Z,70.28
2016-11-08T06:58:10.983Z,69.61
2016-11-08T06:59:11.001Z,69.42
2016-11-08T07:00:10.696Z,69.9
2016-11-08T07:01:10.709Z,69.33
2016-11-08T07:02:10.734Z,70.18
2016-11-08T07:03:10.737Z,69.99
2016-11-08T07:04:11.069Z,69.61
2016-11-08T07:05:11.080Z,69.52
2016-11-08T07:06:10.779Z,69.71
2016-11-08T07:07:10.797Z,69.52
2016-11-08T07:08:10.809Z,69.23
2016-11-08T07:09:11.169Z,69.33
2016-11-08T07:10:11.167Z,68.38
2016-11-08T07:11:11.165Z,68.48
2016-11-08T07:12:10.863Z,68.1
2016-11-08T07:13:11.192Z,68.57
2016-11-08T07:14:10.890Z,68.38
2016-11-08T07:15:11.222Z,68.19
2016-11-08T07:16:10.947Z,69.33
2016-11-08T07:17:10.934Z,68.48
2016-11-08T07:18:11.263Z,68.38
2016-11-08T07:19:11.280Z,68.29
2016-11-08T07:20:10.977Z,68.41
2016-11-08T07:21:10.990Z,68.41
2016-11-08T07:22:11.012Z,68.51
2016-11-08T07:23:11.332Z,68.04
2016-11-08T07:24:11.034Z,67.46
2016-11-08T07:25:11.362Z,67.27
2016-11-08T07:26:11.377Z,67.27
2016-11-08T07:27:11.393Z,67.56
2016-11-08T07:28:11.402Z,67.08
2016-11-08T07:29:11.102Z,67.37
2016-11-08T07:30:11.116Z,66.8
2016-11-08T07:31:11.131Z,66.99
2016-11-08T07:32:11.146Z,66.89
2016-11-08T07:33:11.475Z,67.37
2016-11-08T07:34:11.488Z,66.89
2016-11-08T07:35:11.188Z,65.66
2016-11-08T07:36:11.527Z,66.33
2016-11-08T07:37:11.216Z,66.04
2016-11-08T07:38:11.229Z,67.08
2016-11-08T07:39:11.245Z,67.27
2016-11-08T07:40:11.573Z,66.74
2016-11-08T07:41:11.590Z,66.83
2016-11-08T07:42:11.603Z,66.46
2016-11-08T07:43:11.307Z,66.83
2016-11-08T07:44:11.631Z,66.42
2016-11-08T07:45:11.329Z,66.71
2016-11-08T07:46:11.345Z,67.27
2016-11-08T07:47:11.361Z,67.5
2016-11-08T07:48:11.376Z,67.12
2016-11-08T07:49:11.388Z,66.74
2016-11-08T07:50:11.406Z,66.64
2016-11-08T07:51:11.735Z,66.46
2016-11-08T07:52:11.746Z,65.98
2016-11-08T07:53:11.448Z,65.69
2016-11-08T07:54:11.461Z,65.79
2016-11-08T07:55:11.473Z,64.75
2016-11-08T07:56:11.493Z,64.84
2016-11-08T07:57:11.506Z,65.31
2016-11-08T07:58:11.566Z,65.88
2016-11-08T07:59:11.534Z,65.88
2016-11-08T08:00:11.865Z,65.41
2016-11-08T08:01:11.895Z,66.2
2016-11-08T08:02:11.582Z,65.73
2016-11-08T08:03:11.594Z,65.54
2016-11-08T08:04:11.609Z,64.78
2016-11-08T08:05:11.632Z,64.78
2016-11-08T08:06:11.638Z,64.4
2016-11-08T08:07:11.966Z,64.4
2016-11-08T08:08:11.990Z,64.4
2016-11-08T08:09:11.997Z,64.11
2016-11-08T08:10:12.016Z,64.11
2016-11-08T08:11:11.712Z,63.57
2016-11-08T08:12:11.737Z,63.67
2016-11-08T08:13:11.748Z,63.29
2016-11-08T08:14:12.073Z,63.1
2016-11-08T08:15:11.772Z,62.24
2016-11-08T08:16:11.789Z,62.34
2016-11-08T08:17:12.119Z,61.77
2016-11-08T08:18:12.138Z,61.96
2016-11-08T08:19:12.151Z,61.48
2016-11-08T08:20:11.851Z,61.2
2016-11-08T08:21:11.863Z,61.29
2016-11-08T08:22:11.879Z,60.28
2016-11-08T08:23:12.212Z,60.18
2016-11-08T08:24:11.913Z,60.16
2016-11-08T08:25:11.926Z,59.96
2016-11-08T08:26:12.258Z,60.63
2016-11-08T08:27:11.961Z,60.53
2016-11-08T08:28:11.972Z,60.18
2016-11-08T08:29:12.306Z,59.42
2016-11-08T08:30:12.335Z,60.47
2016-11-08T08:31:12.020Z,60.09
2016-11-08T08:32:12.352Z,61.13
2016-11-08T08:33:12.049Z,61.32
2016-11-08T08:34:12.083Z,60.28
2016-11-08T08:35:12.094Z,59.8
2016-11-08T08:36:12.099Z,58.76
2016-11-08T08:37:12.118Z,58.18
2016-11-08T08:38:12.130Z,58.95
2016-11-08T08:39:12.148Z,59.05
2016-11-08T08:40:12.477Z,58.18
2016-11-08T08:41:12.180Z,58.28
2016-11-08T08:42:12.195Z,58.66
2016-11-08T08:43:12.530Z,57.33
2016-11-08T08:44:12.226Z,57.52
2016-11-08T08:45:12.241Z,56.51
2016-11-08T08:46:12.256Z,55.49
2016-11-08T08:47:12.275Z,55.58
2016-11-08T08:48:12.290Z,55.58
2016-11-08T08:49:12.307Z,55.68
2016-11-08T08:50:12.637Z,55.68
2016-11-08T08:51:12.653Z,55.96
2016-11-08T08:52:12.680Z,55.49
2016-11-08T08:53:12.700Z,54.91
2016-11-08T08:54:12.703Z,55.68
2016-11-08T08:55:12.716Z,54.91
2016-11-08T08:56:12.430Z,55.2
2016-11-08T08:57:12.753Z,55.01
2016-11-08T08:58:12.770Z,55.2
2016-11-08T08:59:12.784Z,53.3
2016-11-08T09:00:12.486Z,52.15
2016-11-08T09:01:12.501Z,53.3
2016-11-08T09:02:12.521Z,54.15
2016-11-08T09:03:12.850Z,54.44
2016-11-08T09:04:12.555Z,54.53
2016-11-08T09:05:12.882Z,53.96
2016-11-08T09:06:12.585Z,54.08
2016-11-08T09:07:12.919Z,53.04
2016-11-08T09:08:12.620Z,53.7
2016-11-08T09:09:12.949Z,53.7
2016-11-08T09:10:12.653Z,53.99
2016-11-08T09:11:12.670Z,52.37
2016-11-08T09:12:12.686Z,52.47
2016-11-08T09:13:12.705Z,52.44
2016-11-08T09:14:12.722Z,52.15
2016-11-08T09:15:12.768Z,52.92
2016-11-08T09:16:13.070Z,53.67
2016-11-08T09:17:13.084Z,52.53
2016-11-08T09:18:12.785Z,53.01
2016-11-08T09:19:12.804Z,53.67
2016-11-08T09:20:12.820Z,53.96
2016-11-08T09:21:13.153Z,54.25
2016-11-08T09:22:12.854Z,53.96
2016-11-08T09:23:12.870Z,54.53
2016-11-08T09:24:12.889Z,54.89
2016-11-08T09:25:13.219Z,54.41
2016-11-08T09:26:13.248Z,54.41
2016-11-08T09:27:13.252Z,55.36
2016-11-08T09:28:13.269Z,55.27
2016-11-08T09:29:12.971Z,54.79
2016-11-08T09:30:13.304Z,54.89
2016-11-08T09:31:13.315Z,55.36
2016-11-08T09:32:13.023Z,55.1
2016-11-08T09:33:13.053Z,54.44
2016-11-08T09:34:13.064Z,54.15
2016-11-08T09:35:13.383Z,54.15
2016-11-08T09:36:13.083Z,52.44
2016-11-08T09:37:13.417Z,52.28
2016-11-08T09:38:13.118Z,52.94
2016-11-08T09:39:13.134Z,52.18
2016-11-08T09:40:13.149Z,51.7
2016-11-08T09:41:13.168Z,50.18
2016-11-08T09:42:13.190Z,51.04
2016-11-08T09:43:13.202Z,51.64
2016-11-08T09:44:13.541Z,51.64
2016-11-08T09:45:13.547Z,50.4
2016-11-08T09:46:13.251Z,50.59
2016-11-08T09:47:13.268Z,51.45
2016-11-08T09:48:13.602Z,50.87
2016-11-08T09:49:13.301Z,50.97
2016-11-08T09:50:13.320Z,50.49
2016-11-08T09:51:13.336Z,50.21
2016-11-08T09:52:13.669Z,49.44
2016-11-08T09:53:13.686Z,49.63
2016-11-08T09:54:13.389Z,48.39
2016-11-08T09:55:13.415Z,48.75
2016-11-08T09:56:13.425Z,48.27
2016-11-08T09:57:13.757Z,48.47
2016-11-08T09:58:13.457Z,50.75
2016-11-08T09:59:13.807Z,50.27
2016-11-08T10:00:13.804Z,50.75
2016-11-08T10:01:13.822Z,50.85
2016-11-08T10:02:13.525Z,51.8
2016-11-08T10:03:13.870Z,51.61
2016-11-08T10:04:13.876Z,52.09
2016-11-08T10:05:13.893Z,51.61
2016-11-08T10:06:13.592Z,50.94
2016-11-08T10:07:13.928Z,52.18
2016-11-08T10:08:13.626Z,54.75
2016-11-08T10:09:13.995Z,55.42
2016-11-08T10:10:13.682Z,51.7
2016-11-08T10:11:13.690Z,50.37
2016-11-08T10:12:13.695Z,50.94
2016-11-08T10:13:13.714Z,49.32
2016-11-08T10:14:13.732Z,50.27
2016-11-08T10:15:13.747Z,51.32
2016-11-08T10:16:14.081Z,51.23
2016-11-08T10:17:13.781Z,51.61
2016-11-08T10:18:14.113Z,50.85
2016-11-08T10:19:14.133Z,50.37
2016-11-08T10:20:14.149Z,48.85
2016-11-08T10:21:14.211Z,48.94
2016-11-08T10:22:14.182Z,49.51
2016-11-08T10:23:14.205Z,49.51
2016-11-08T10:24:13.902Z,49.32
2016-11-08T10:25:14.236Z,49.61
2016-11-08T10:26:14.252Z,50.09
2016-11-08T10:27:13.953Z,50.37
2016-11-08T10:28:14.316Z,50.94
2016-11-08T10:29:13.987Z,51.89
2016-11-08T10:30:14.318Z,50.66
2016-11-08T10:31:14.113Z,51.14
2016-11-08T10:32:14.040Z,50.85
2016-11-08T10:33:14.371Z,50.75
2016-11-08T10:34:14.385Z,51.04
2016-11-08T10:35:14.090Z,50.27
2016-11-08T10:36:14.432Z,50.85
2016-11-08T10:37:14.122Z,51.14
2016-11-08T10:38:14.146Z,50.75
2016-11-08T10:39:14.471Z,50.37
2016-11-08T10:40:14.494Z,50.46
2016-11-08T10:41:14.505Z,50.06
2016-11-08T10:42:14.211Z,51.2
2016-11-08T10:43:14.555Z,51.58
2016-11-08T10:44:14.554Z,51.39
2016-11-08T10:45:14.574Z,51.58
2016-11-08T10:46:14.591Z,51.68
2016-11-08T10:47:14.616Z,52.25
2016-11-08T10:48:14.626Z,51.68
2016-11-08T10:49:14.324Z,51.68
2016-11-08T10:50:14.658Z,51.68
2016-11-08T10:51:14.677Z,51.2
2016-11-08T10:52:14.374Z,51.1
2016-11-08T10:53:14.391Z,51.68
2016-11-08T10:54:14.723Z,52.15
2016-11-08T10:55:14.423Z,53.58
2016-11-08T10:56:14.757Z,53.77
2016-11-08T10:57:14.457Z,54.53
2016-11-08T10:58:14.473Z,54.53
2016-11-08T10:59:14.808Z,53.8
2016-11-08T11:00:14.509Z,53.8
2016-11-08T11:01:14.525Z,48.94
2016-11-08T11:02:14.539Z,50.85
2016-11-08T11:03:14.559Z,52.84
2016-11-08T11:04:14.577Z,53.44
2016-11-08T11:05:14.594Z,53.16
2016-11-08T11:06:14.612Z,51.45
2016-11-08T11:07:14.629Z,50.11
2016-11-08T11:08:14.646Z,51.06
2016-11-08T11:09:14.668Z,50.23
2016-11-08T11:10:14.680Z,50.23
2016-11-08T11:11:14.698Z,49.76
2016-11-08T11:12:15.033Z,49.85
2016-11-08T11:13:15.064Z,49.08
2016-11-08T11:14:14.753Z,48.52
2016-11-08T11:15:14.770Z,47.94
2016-11-08T11:16:14.786Z,48.32
2016-11-08T11:17:15.126Z,48.13
2016-11-08T11:18:15.137Z,48.52
2016-11-08T11:19:15.156Z,47.85
2016-11-08T11:20:14.858Z,48.78
2016-11-08T11:21:14.877Z,49.35
2016-11-08T11:22:14.898Z,48.87
2016-11-08T11:23:15.262Z,48.04
2016-11-08T11:24:15.250Z,48.49
2016-11-08T11:25:14.951Z,48.87
2016-11-08T11:26:15.283Z,48.78
2016-11-08T11:27:14.985Z,47.82
2016-11-08T11:28:15.011Z,47.34
2016-11-08T11:29:15.025Z,47.04
2016-11-08T11:30:15.039Z,48.08
2016-11-08T11:31:15.055Z,48.66
2016-11-08T11:32:15.094Z,48.49
2016-11-08T11:33:15.405Z,49.23
2016-11-08T11:34:15.110Z,49.23
2016-11-08T11:35:15.444Z,49.23
2016-11-08T11:36:15.149Z,49.42
2016-11-08T11:37:15.476Z,49.13
2016-11-08T11:38:15.495Z,49.04
2016-11-08T11:39:15.217Z,49.42
2016-11-08T11:40:15.228Z,49.42
2016-11-08T11:41:15.231Z,50.18
2016-11-08T11:42:15.566Z,49.06
2016-11-08T11:43:15.265Z,47.25
2016-11-08T11:44:15.600Z,45.14
2016-11-08T11:45:15.618Z,44.94
2016-11-08T11:46:15.321Z,44.94
2016-11-08T11:47:15.337Z,45.32
2016-11-08T11:48:15.363Z,45.04
2016-11-08T11:49:15.369Z,45.14
2016-11-08T11:50:15.388Z,46.18
2016-11-08T11:51:15.406Z,46.94
2016-11-08T11:52:15.737Z,47.89
2016-11-08T11:53:15.439Z,47.44
2016-11-08T11:54:15.459Z,47.54
2016-11-08T11:55:15.792Z,45.25
2016-11-08T11:56:15.805Z,44.11
2016-11-08T11:57:15.830Z,43.73
2016-11-08T11:58:15.841Z,43.82
2016-11-08T11:59:15.861Z,43.35
2016-11-08T12:00:15.563Z,43.16
2016-11-08T12:01:15.580Z,43.25
2016-11-08T12:02:15.915Z,43.54
2016-11-08T12:03:15.616Z,43.63
2016-11-08T12:04:15.632Z,43.82
2016-11-08T12:05:15.649Z,43.37
2016-11-08T12:06:15.990Z,44.89
2016-11-08T12:07:15.684Z,44.6
2016-11-08T12:08:15.701Z,43.56
2016-11-08T12:09:16.044Z,43.37
2016-11-08T12:10:15.740Z,43.27
2016-11-08T12:11:15.756Z,43.46
2016-11-08T12:12:15.774Z,42.6
2016-11-08T12:13:16.104Z,42.41
2016-11-08T12:14:16.126Z,40.63
2016-11-08T12:15:16.141Z,41.39
2016-11-08T12:16:16.170Z,40.91
2016-11-08T12:17:16.182Z,42.15
2016-11-08T12:18:15.881Z,42.15
2016-11-08T12:19:16.217Z,41
2016-11-08T12:20:15.919Z,40.34
2016-11-08T12:21:16.253Z,40.91
2016-11-08T12:22:15.955Z,40.63
2016-11-08T12:23:16.287Z,40.53
2016-11-08T12:24:16.010Z,40.34
2016-11-08T12:25:16.325Z,40.24
2016-11-08T12:26:16.344Z,39.58
2016-11-08T12:27:16.049Z,39.67
2016-11-08T12:28:16.380Z,40.12
2016-11-08T12:29:16.398Z,40.63
2016-11-08T12:30:16.417Z,41.08
2016-11-08T12:31:16.134Z,42.13
2016-11-08T12:32:16.452Z,42.15
2016-11-08T12:33:16.471Z,41.29
2016-11-08T12:34:16.180Z,41.67
2016-11-08T12:35:16.192Z,42.44
2016-11-08T12:36:16.222Z,42.05
2016-11-08T12:37:16.544Z,41.96
2016-11-08T12:38:16.565Z,41.48
2016-11-08T12:39:16.582Z,42.05
2016-11-08T12:40:16.304Z,42.32
2016-11-08T12:41:16.302Z,42.63
2016-11-08T12:42:16.321Z,42.82
2016-11-08T12:43:16.662Z,42.63
2016-11-08T12:44:16.680Z,40.24
2016-11-08T12:45:16.374Z,40.22
2016-11-08T12:46:16.395Z,39.84
2016-11-08T12:47:16.429Z,40.89
2016-11-08T12:48:16.429Z,40.03
2016-11-08T12:49:16.451Z,39.84
2016-11-08T12:50:16.787Z,39.94
2016-11-08T12:51:16.484Z,40.32
2016-11-08T12:52:16.501Z,41.56
2016-11-08T12:53:16.552Z,40.03
2016-11-08T12:54:16.853Z,40.99
2016-11-08T12:55:16.563Z,40.8